»·PEaware :: AAL1185 KBUR-KLAS

AAL1185 :: KBUR-KLAS

FLIGHT INFORMATION

Flight Status: Arrived
Operator:
American Airlines
More flights by this operator :: More flights under this callsign
Pilot: Levi W. (27922)
Aircraft: AIRBUS A319
(A319)
More flights by this aircraft type
Origin: KBUR Bob Hope-Burbank
United States
Destination: KLAS McCarran Intl
United States
More flights between these airports :: More routes between these airports
Route: +SLAPP1 MISEN KEPEC6
File this flight plan on PilotEdge
Remarks:
Altitude:
(Current/Filed)
28,000ft
Speed:
(Current/Filed)
439kts
Departed: 21-May-20 04:29 PM
Arrived: 21-May-20 05:12 PM
Distance/Time
Traveled:
194nm/0:43
Distance/Time
To Go:
Arrived

Flight Plot

Page will automatically refresh every two minutes.


Map Options




Map Legend


Flown Route
Filed Route
Departure Airport
Arrival Airport
Navaid (VOR, NDB)
Fix

Horizontal Profiles

Position Reports

Time Latitude Longitude Heading Altitude Ground
Speed
21-May-20 16:01 34.196816 -118.351951 179 786ft 0kts
21-May-20 16:02 34.196816 -118.351951 179 786ft 0kts
21-May-20 16:03 34.196816 -118.351951 179 786ft 0kts
21-May-20 16:04 34.196816 -118.351951 179 786ft 0kts
21-May-20 16:05 34.196816 -118.351951 179 786ft 0kts
21-May-20 16:06 34.196816 -118.351951 179 786ft 0kts
21-May-20 16:07 34.196816 -118.351951 179 786ft 0kts
21-May-20 16:08 34.196816 -118.351951 179 786ft 0kts
21-May-20 16:09 34.196816 -118.351951 179 786ft 0kts
21-May-20 16:10 34.196816 -118.351951 179 786ft 0kts
21-May-20 16:11 34.196816 -118.351951 179 786ft 0kts
21-May-20 16:12 34.196816 -118.351951 179 786ft 0kts
21-May-20 16:13 34.196816 -118.351951 179 786ft 0kts
21-May-20 16:13 34.196816 -118.351951 179 786ft 0kts
21-May-20 16:15 34.196816 -118.351951 179 786ft 0kts
21-May-20 16:15 34.196816 -118.351951 179 786ft 0kts
21-May-20 16:16 34.196816 -118.351951 179 786ft 0kts
21-May-20 16:18 34.197182 -118.351616 259 786ft 2kts
21-May-20 16:18 34.197172 -118.351094 274 786ft 0kts
21-May-20 16:19 34.197165 -118.351297 273 786ft 2kts
21-May-20 16:20 34.197158 -118.351151 271 786ft 0kts
21-May-20 16:21 34.197158 -118.351151 271 786ft 0kts
21-May-20 16:22 34.197194 -118.353089 271 786ft 12kts
21-May-20 16:23 34.199866 -118.355651 347 786ft 18kts
21-May-20 16:24 34.205671 -118.357249 347 786ft 23kts
21-May-20 16:25 34.211280 -118.358826 341 786ft 4kts
21-May-20 16:26 34.211579 -118.359056 310 786ft 0kts
21-May-20 16:27 34.212146 -118.360368 220 786ft 1kts
21-May-20 16:28 34.202646 -118.357772 167 796ft 137kts
21-May-20 16:29 34.162096 -118.371732 225 3798ft 177kts
21-May-20 16:30 34.121857 -118.432200 266 4232ft 274kts
21-May-20 16:31 34.174915 -118.485401 1 8668ft 290kts
21-May-20 16:32 34.256383 -118.475836 28 12445ft 309kts
21-May-20 16:33 34.332486 -118.421026 27 15700ft 325kts
21-May-20 16:34 34.412833 -118.366602 25 19022ft 339kts
21-May-20 16:35 34.492843 -118.302693 34 22008ft 355kts
21-May-20 16:36 34.569693 -118.225285 33 24649ft 365kts
21-May-20 16:37 34.648799 -118.144844 40 26813ft 384kts
21-May-20 16:38 34.684148 -118.017977 76 27020ft 410kts
21-May-20 16:39 34.697123 -117.880037 83 27020ft 412kts
21-May-20 16:40 34.705074 -117.740927 84 27019ft 412kts
21-May-20 16:41 34.710341 -117.601377 84 27019ft 412kts
21-May-20 16:42 34.724807 -117.464296 68 27021ft 406kts
21-May-20 16:43 34.760149 -117.333970 67 27020ft 405kts
21-May-20 16:44 34.794198 -117.205144 68 27030ft 405kts
21-May-20 16:45 34.827922 -117.077183 68 25559ft 393kts
21-May-20 16:46 34.860688 -116.952330 68 24043ft 378kts
21-May-20 16:47 34.891933 -116.832850 68 22557ft 364kts
21-May-20 16:48 34.925164 -116.718539 57 21037ft 349kts
21-May-20 16:49 34.978525 -116.622635 51 19390ft 338kts
21-May-20 16:50 35.031489 -116.529009 52 18997ft 336kts
21-May-20 16:51 35.084363 -116.434997 52 18996ft 336kts
21-May-20 16:52 35.145802 -116.348768 42 18996ft 336kts
21-May-20 16:53 35.210685 -116.267547 43 18066ft 331kts
21-May-20 16:54 35.274814 -116.187007 43 17087ft 328kts
21-May-20 16:55 35.337725 -116.107794 43 16114ft 324kts
21-May-20 16:56 35.400452 -116.028643 44 15133ft 320kts
21-May-20 16:57 35.461965 -115.950822 44 14155ft 315kts
21-May-20 16:58 35.522590 -115.873981 44 13175ft 309kts
21-May-20 16:59 35.582406 -115.797976 44 13048ft 309kts
21-May-20 17:00 35.642114 -115.721935 44 13048ft 309kts
21-May-20 17:01 35.701627 -115.645959 44 13048ft 307kts
21-May-20 17:02 35.764898 -115.576553 15 13044ft 303kts
21-May-20 17:03 35.829894 -115.521362 60 11893ft 302kts
21-May-20 17:04 35.868560 -115.430520 60 10205ft 295kts
21-May-20 17:05 35.912491 -115.346990 40 8417ft 290kts
21-May-20 17:06 35.980798 -115.318713 355 5988ft 255kts
21-May-20 17:07 36.050066 -115.325570 2 4137ft 249kts
21-May-20 17:08 36.081187 -115.271736 101 3755ft 202kts
21-May-20 17:09 36.074179 -115.207674 95 2968ft 158kts
21-May-20 17:10 36.073674 -115.161282 93 2214ft 124kts
21-May-20 17:11 36.074455 -115.139124 60 2190ft 7kts
21-May-20 17:12 36.074691 -115.138623 59 2190ft 5kts
21-May-20 17:13 36.078342 -115.137895 10 2190ft 8kts
21-May-20 17:14 36.079916 -115.135691 22 2190ft 2kts

Navigation Log

Ident Type
Flight plan parsing failed, navigation log unavailable